Time;durP1;ratioP1;P1;durP2;ratioP2;P2;SDS_P1;SDS_P2;PMS_P1;PMS_P2;Temp;Humidity;BMP_temperature;BMP_pressure;BME280_temperature;BME280_humidity;BME280_pressure;Samples;Min_cycle;Max_cycle;Signal;HPM_P1;HPM_P2
2022/08/19 00:02:20;;;;;;;;;;;25.40;58.40;;;;;;5047935;28;87110;-37
2022/08/19 00:04:48;;;;;;;;;;;25.40;58.40;;;;;;5044919;28;88295;-37
2022/08/19 00:07:13;;;;;;;;;;;25.40;58.40;;;;;;5044889;28;87089;-37
2022/08/19 00:09:39;;;;;;;;;;;25.40;58.40;;;;;;5045193;28;87306;-37
2022/08/19 00:12:05;;;;;;;;;;;25.40;58.40;;;;;;5044403;28;88085;-37
2022/08/19 00:14:31;;;;;;;;;;;25.30;58.40;;;;;;5045196;28;86373;-37
2022/08/19 00:16:56;;;;;;;;;;;25.30;58.30;;;;;;5044521;28;86895;-37
2022/08/19 00:19:23;;;;;;;;;;;25.30;59.00;;;;;;5044533;28;87957;-37
2022/08/19 00:21:48;;;;;;;;;;;25.30;58.30;;;;;;5044152;28;87992;-37
2022/08/19 00:24:14;;;;;;;;;;;25.20;58.20;;;;;;5047414;28;88049;-37
2022/08/19 00:26:41;;;;;;;;;;;25.20;58.20;;;;;;5044397;28;87202;-37
2022/08/19 00:29:07;;;;;;;;;;;25.20;58.30;;;;;;5044864;27;87266;-37
2022/08/19 00:31:32;;;;;;;;;;;25.20;58.30;;;;;;5043459;28;87113;-37
2022/08/19 00:33:58;;;;;;;;;;;25.20;58.20;;;;;;5044578;28;87078;-37
2022/08/19 00:36:24;;;;;;;;;;;25.20;58.30;;;;;;5044664;28;87066;-37
2022/08/19 00:38:51;;;;;;;;;;;25.20;58.30;;;;;;5044467;28;88938;-37
2022/08/19 00:41:20;;;;;;;;;;;25.10;58.20;;;;;;5044431;28;87423;-37
2022/08/19 00:43:56;;;;;;;;;;;25.20;58.20;;;;;;5044253;28;88979;-37
2022/08/19 00:46:23;;;;;;;;;;;25.10;58.30;;;;;;5046596;28;89620;-37
2022/08/19 00:48:48;;;;;;;;;;;25.10;58.10;;;;;;5044520;27;88385;-37
2022/08/19 00:51:14;;;;;;;;;;;25.10;58.20;;;;;;5043925;28;87547;-37
2022/08/19 00:53:40;;;;;;;;;;;25.00;58.10;;;;;;5044441;28;87549;-37
2022/08/19 00:56:06;;;;;;;;;;;25.00;58.10;;;;;;5044319;27;87510;-37
2022/08/19 00:58:33;;;;;;;;;;;25.00;58.10;;;;;;5043964;28;87947;-37
2022/08/19 01:01:00;;;;;;;;;;;25.00;58.20;;;;;;5044183;28;87387;-37
2022/08/19 01:03:26;;;;;;;;;;;25.00;58.10;;;;;;5044627;27;87532;-37
2022/08/19 01:05:52;;;;;;;;;;;25.00;58.20;;;;;;5043807;28;88144;-37
2022/08/19 01:08:18;;;;;;;;;;;25.00;58.10;;;;;;5046990;28;87112;-37
2022/08/19 01:10:47;;;;;;;;;;;25.00;58.20;;;;;;5043151;28;89061;-37
2022/08/19 01:13:17;;;;;;;;;;;25.00;58.10;;;;;;5043899;28;87126;-37
2022/08/19 01:15:48;;;;;;;;;;;24.90;58.10;;;;;;5043236;27;89193;-37
2022/08/19 01:18:15;;;;;;;;;;;24.90;58.10;;;;;;5043581;28;88048;-37
2022/08/19 01:20:41;;;;;;;;;;;24.90;58.10;;;;;;5043777;28;87177;-37
2022/08/19 01:23:07;;;;;;;;;;;24.90;58.10;;;;;;5043319;28;88971;-37
2022/08/19 01:25:39;;;;;;;;;;;24.90;58.10;;;;;;5043696;28;88281;-37
2022/08/19 01:28:04;;;;;;;;;;;24.90;58.10;;;;;;5044258;28;86442;-37
2022/08/19 01:30:33;;;;;;;;;;;24.90;58.10;;;;;;5046328;28;87043;-37
2022/08/19 01:32:59;;;;;;;;;;;24.80;58.10;;;;;;5043664;28;87454;-37
2022/08/19 01:35:26;;;;;;;;;;;24.80;58.10;;;;;;5042982;28;88836;-37
2022/08/19 01:37:56;;;;;;;;;;;24.80;58.10;;;;;;5042960;28;89467;-37
2022/08/19 01:40:23;;;;;;;;;;;24.80;58.10;;;;;;5043497;28;86946;-37
2022/08/19 01:42:50;;;;;;;;;;;24.80;58.10;;;;;;5043318;27;87521;-37
2022/08/19 01:45:16;;;;;;;;;;;24.80;58.10;;;;;;5043128;28;87996;-37
2022/08/19 01:47:41;;;;;;;;;;;24.70;58.10;;;;;;5043225;28;87127;-37
2022/08/19 01:50:08;;;;;;;;;;;24.70;58.00;;;;;;5043230;27;87314;-37
2022/08/19 01:52:38;;;;;;;;;;;24.70;58.10;;;;;;5046307;28;87210;-37
2022/08/19 01:55:05;;;;;;;;;;;24.70;58.20;;;;;;5043217;28;88634;-37
2022/08/19 01:57:31;;;;;;;;;;;24.70;58.20;;;;;;5042815;28;89714;-37
2022/08/19 01:59:56;;;;;;;;;;;24.60;58.10;;;;;;5042566;28;88049;-37
2022/08/19 02:02:22;;;;;;;;;;;24.60;58.10;;;;;;5043034;27;89530;-37
2022/08/19 02:04:47;;;;;;;;;;;24.60;58.10;;;;;;5042972;28;88043;-37
2022/08/19 02:07:13;;;;;;;;;;;24.60;58.10;;;;;;5043057;28;87120;-37
2022/08/19 02:09:39;;;;;;;;;;;24.60;58.10;;;;;;5043300;28;87667;-37
2022/08/19 02:12:05;;;;;;;;;;;24.60;58.10;;;;;;5045652;28;87976;-37
2022/08/19 02:14:30;;;;;;;;;;;24.60;58.00;;;;;;5042946;27;88769;-37
2022/08/19 02:16:56;;;;;;;;;;;24.50;58.10;;;;;;5043314;28;87525;-37
2022/08/19 02:19:22;;;;;;;;;;;24.50;58.20;;;;;;5042606;28;87154;-37
2022/08/19 02:21:47;;;;;;;;;;;24.50;58.10;;;;;;5041578;28;90570;-37
2022/08/19 02:24:13;;;;;;;;;;;24.50;58.20;;;;;;5041800;28;89563;-37
2022/08/19 02:26:38;;;;;;;;;;;24.50;58.10;;;;;;5042624;28;87131;-37
2022/08/19 02:29:04;;;;;;;;;;;24.50;58.10;;;;;;5043141;28;87276;-37
2022/08/19 02:31:30;;;;;;;;;;;24.50;58.20;;;;;;5042652;28;88364;-37
2022/08/19 02:33:56;;;;;;;;;;;24.50;58.30;;;;;;5045907;28;87180;-37
2022/08/19 02:36:21;;;;;;;;;;;24.50;58.20;;;;;;5042012;28;88336;-37
2022/08/19 02:38:47;;;;;;;;;;;24.40;58.10;;;;;;5042888;28;87134;-37
2022/08/19 02:41:18;;;;;;;;;;;24.40;58.00;;;;;;5043412;27;87501;-37
2022/08/19 02:43:44;;;;;;;;;;;24.40;58.20;;;;;;5041967;28;88259;-37
2022/08/19 02:46:12;;;;;;;;;;;24.40;58.20;;;;;;5042675;28;87150;-37
2022/08/19 02:48:38;;;;;;;;;;;24.30;58.20;;;;;;5042090;28;87801;-37
2022/08/19 02:51:03;;;;;;;;;;;24.30;58.20;;;;;;5042063;28;87694;-37
2022/08/19 02:53:29;;;;;;;;;;;24.30;58.10;;;;;;5043655;27;87138;-37
2022/08/19 02:55:54;;;;;;;;;;;24.30;58.20;;;;;;5048935;27;87426;-37
2022/08/19 02:58:21;;;;;;;;;;;24.30;58.20;;;;;;5046254;28;87137;-37
2022/08/19 03:00:49;;;;;;;;;;;24.30;58.20;;;;;;5046045;27;89010;-37
2022/08/19 03:03:15;;;;;;;;;;;24.20;58.20;;;;;;5045471;28;89395;-37
2022/08/19 03:05:41;;;;;;;;;;;24.20;58.20;;;;;;5046268;28;86388;-37
2022/08/19 03:08:07;;;;;;;;;;;24.20;58.20;;;;;;5046181;27;86896;-37
2022/08/19 03:10:33;;;;;;;;;;;24.20;58.20;;;;;;5045453;28;89256;-37
2022/08/19 03:12:58;;;;;;;;;;;24.20;58.20;;;;;;5045418;28;88090;-37
2022/08/19 03:15:24;;;;;;;;;;;24.20;58.20;;;;;;5045095;27;88839;-37
2022/08/19 03:17:49;;;;;;;;;;;24.20;58.20;;;;;;5048441;28;87362;-37
2022/08/19 03:20:15;;;;;;;;;;;24.10;58.10;;;;;;5045786;28;87152;-37
2022/08/19 03:22:40;;;;;;;;;;;24.20;58.20;;;;;;5045383;28;87164;-37
2022/08/19 03:25:06;;;;;;;;;;;24.10;58.10;;;;;;5045824;28;87130;-37
2022/08/19 03:27:31;;;;;;;;;;;24.10;58.10;;;;;;5045797;27;87302;-37
2022/08/19 03:29:57;;;;;;;;;;;24.10;58.10;;;;;;5046000;28;86565;-37
2022/08/19 03:32:23;;;;;;;;;;;24.10;58.10;;;;;;5045328;28;87230;-37
2022/08/19 03:34:49;;;;;;;;;;;24.00;58.10;;;;;;5045683;28;87794;-37
2022/08/19 03:37:14;;;;;;;;;;;24.00;58.10;;;;;;5044411;28;90517;-37
2022/08/19 03:39:40;;;;;;;;;;;24.00;58.10;;;;;;5048483;28;87017;-37
2022/08/19 03:42:06;;;;;;;;;;;24.00;58.10;;;;;;5045109;28;87107;-37
2022/08/19 03:44:37;;;;;;;;;;;23.90;58.10;;;;;;5045324;28;87469;-37
2022/08/19 03:47:03;;;;;;;;;;;24.00;58.20;;;;;;5045148;28;88113;-37
2022/08/19 03:49:30;;;;;;;;;;;23.90;58.10;;;;;;5045053;28;87809;-37
2022/08/19 03:51:57;;;;;;;;;;;24.00;58.20;;;;;;5045185;28;87119;-37
2022/08/19 03:54:23;;;;;;;;;;;23.90;58.00;;;;;;5045545;27;88087;-37
2022/08/19 03:56:49;;;;;;;;;;;23.90;58.00;;;;;;5044598;28;88886;-37
2022/08/19 03:59:17;;;;;;;;;;;23.90;58.10;;;;;;5044967;28;87051;-37
2022/08/19 04:01:43;;;;;;;;;;;23.90;58.20;;;;;;5046989;27;89193;-37
2022/08/19 04:04:08;;;;;;;;;;;23.90;58.10;;;;;;5044420;27;87223;-37
2022/08/19 04:06:35;;;;;;;;;;;23.90;58.10;;;;;;5044503;27;87539;-37
2022/08/19 04:09:03;;;;;;;;;;;23.80;58.10;;;;;;5044855;28;88003;-37
2022/08/19 04:11:30;;;;;;;;;;;23.80;58.10;;;;;;5044924;28;87088;-37
2022/08/19 04:13:55;;;;;;;;;;;23.80;58.20;;;;;;5045060;27;87450;-37
2022/08/19 04:16:22;;;;;;;;;;;23.80;58.20;;;;;;5044318;28;87919;-37
2022/08/19 04:18:48;;;;;;;;;;;23.80;58.20;;;;;;5045313;28;86431;-37
2022/08/19 04:21:19;;;;;;;;;;;23.70;58.10;;;;;;5047586;27;86975;-37
2022/08/19 04:23:45;;;;;;;;;;;23.70;58.10;;;;;;5044592;28;87089;-37
2022/08/19 04:26:18;;;;;;;;;;;23.70;58.30;;;;;;5043976;27;87632;-37
2022/08/19 04:28:44;;;;;;;;;;;23.70;58.20;;;;;;5044224;28;90143;-37
2022/08/19 04:31:15;;;;;;;;;;;23.70;58.20;;;;;;5044512;28;87122;-37
2022/08/19 04:33:41;;;;;;;;;;;23.70;58.20;;;;;;5044683;28;87428;-37
2022/08/19 04:36:06;;;;;;;;;;;23.70;58.20;;;;;;5044378;28;87559;-37
2022/08/19 04:38:32;;;;;;;;;;;23.70;58.20;;;;;;5044802;28;87102;-37
2022/08/19 04:43:41;;;;;;;;;;;23.60;58.30;;;;;;5047332;28;86528;-37
2022/08/19 04:46:08;;;;;;;;;;;23.60;58.30;;;;;;5044553;28;87170;-37
2022/08/19 04:48:34;;;;;;;;;;;23.60;58.30;;;;;;5044083;28;88139;-37
2022/08/19 04:50:59;;;;;;;;;;;23.60;58.30;;;;;;5043546;28;88162;-37
2022/08/19 04:53:29;;;;;;;;;;;23.60;58.30;;;;;;5044563;27;87452;-37
2022/08/19 04:55:56;;;;;;;;;;;23.50;58.30;;;;;;5044045;28;88031;-37
2022/08/19 04:58:22;;;;;;;;;;;23.60;58.30;;;;;;5044077;28;87122;-37
2022/08/19 05:00:48;;;;;;;;;;;23.60;58.30;;;;;;5044148;27;89085;-37
2022/08/19 05:03:16;;;;;;;;;;;23.60;58.40;;;;;;5043813;28;88157;-37
2022/08/19 05:05:44;;;;;;;;;;;23.50;58.30;;;;;;5047162;28;87099;-37
2022/08/19 05:08:10;;;;;;;;;;;23.50;58.40;;;;;;5044179;28;88812;-37
2022/08/19 05:10:36;;;;;;;;;;;23.50;58.40;;;;;;5042676;28;86970;-37
2022/08/19 05:13:02;;;;;;;;;;;23.50;58.40;;;;;;5044054;28;87538;-37
2022/08/19 05:15:28;;;;;;;;;;;23.50;58.50;;;;;;5042539;27;89101;-37
2022/08/19 05:23:34;;;;;;;;;;;23.50;58.40;;;;;;5043349;28;87284;-37
2022/08/19 05:26:00;;;;;;;;;;;23.40;58.50;;;;;;5043675;28;87584;-37
2022/08/19 05:28:26;;;;;;;;;;;23.40;58.50;;;;;;5046375;28;87648;-37
2022/08/19 05:30:52;;;;;;;;;;;23.40;58.50;;;;;;5043315;28;87024;-37
2022/08/19 05:33:18;;;;;;;;;;;23.40;58.50;;;;;;5044277;28;87337;-37
2022/08/19 05:35:43;;;;;;;;;;;23.40;58.60;;;;;;5043526;28;88011;-37
2022/08/19 05:38:10;;;;;;;;;;;23.40;58.60;;;;;;5043438;28;87118;-37
2022/08/19 05:40:37;;;;;;;;;;;23.40;58.70;;;;;;5043261;27;88663;-37
2022/08/19 05:43:03;;;;;;;;;;;23.40;58.70;;;;;;5043178;28;88155;-37
2022/08/19 05:45:29;;;;;;;;;;;23.40;58.60;;;;;;5043408;28;87184;-37
2022/08/19 05:47:54;;;;;;;;;;;23.40;58.70;;;;;;5043674;27;87521;-37
2022/08/19 05:50:20;;;;;;;;;;;23.40;58.70;;;;;;5046283;28;88143;-37
2022/08/19 05:52:46;;;;;;;;;;;23.40;58.70;;;;;;5043254;27;87303;-37
2022/08/19 05:55:12;;;;;;;;;;;23.40;58.70;;;;;;5042862;28;88261;-37
2022/08/19 05:57:38;;;;;;;;;;;23.40;58.80;;;;;;5043684;28;86402;-37
2022/08/19 06:00:08;;;;;;;;;;;23.40;58.80;;;;;;5043182;27;88274;-37
2022/08/19 06:02:35;;;;;;;;;;;23.40;58.80;;;;;;5042545;28;89754;-37
2022/08/19 06:05:02;;;;;;;;;;;23.40;58.80;;;;;;5042577;28;88037;-37
2022/08/19 06:07:28;;;;;;;;;;;23.40;58.80;;;;;;5042988;27;87413;-37
2022/08/19 06:09:54;;;;;;;;;;;23.40;58.90;;;;;;5042514;28;89449;-37
2022/08/19 06:12:19;;;;;;;;;;;23.40;58.90;;;;;;5045888;28;87109;-37
2022/08/19 06:14:45;;;;;;;;;;;23.40;58.90;;;;;;5042756;28;88131;-37
2022/08/19 06:17:11;;;;;;;;;;;23.40;59.00;;;;;;5043068;28;87089;-37
2022/08/19 06:19:39;;;;;;;;;;;23.40;59.00;;;;;;5043120;28;86985;-37
2022/08/19 06:22:06;;;;;;;;;;;23.40;59.00;;;;;;5042713;28;88866;-37
2022/08/19 06:24:31;;;;;;;;;;;23.40;59.00;;;;;;5042874;28;87060;-37
2022/08/19 06:26:58;;;;;;;;;;;23.40;59.10;;;;;;5042938;28;87589;-37
2022/08/19 06:29:24;;;;;;;;;;;23.40;59.10;;;;;;5040559;28;90306;-37
2022/08/19 06:31:51;;;;;;;;;;;23.40;59.10;;;;;;5045605;28;87098;-37
2022/08/19 06:34:16;;;;;;;;;;;23.40;59.20;;;;;;5042566;28;87994;-37
2022/08/19 06:36:44;;;;;;;;;;;23.40;59.20;;;;;;5042941;28;86992;-37
2022/08/19 06:39:20;;;;;;;;;;;23.40;59.20;;;;;;5042689;28;87536;-37
2022/08/19 06:41:47;;;;;;;;;;;23.40;59.20;;;;;;5042636;28;87997;-37
2022/08/19 06:44:13;;;;;;;;;;;23.40;59.20;;;;;;5042247;28;87082;-37
2022/08/19 06:46:39;;;;;;;;;;;23.40;59.20;;;;;;5043076;27;88150;-37
2022/08/19 06:49:05;;;;;;;;;;;23.40;59.20;;;;;;5042045;28;87932;-37
2022/08/19 06:51:32;;;;;;;;;;;23.40;59.20;;;;;;5042495;28;87074;-37
2022/08/19 06:53:58;;;;;;;;;;;23.40;59.30;;;;;;5044427;27;89087;-37
2022/08/19 06:56:30;;;;;;;;;;;23.40;59.30;;;;;;5042604;28;87091;-37
2022/08/19 06:58:56;;;;;;;;;;;23.40;59.20;;;;;;5042956;28;87508;-37
2022/08/19 07:01:22;;;;;;;;;;;23.40;59.30;;;;;;5042080;28;88215;-37
2022/08/19 07:03:47;;;;;;;;;;;23.40;59.30;;;;;;5042410;28;87111;-37
2022/08/19 07:06:17;;;;;;;;;;;23.40;59.30;;;;;;5042713;28;87742;-37
2022/08/19 07:08:43;;;;;;;;;;;23.40;59.30;;;;;;5042044;28;87997;-37
2022/08/19 07:11:10;;;;;;;;;;;23.40;59.40;;;;;;5042854;28;86388;-37
2022/08/19 07:13:36;;;;;;;;;;;23.40;59.40;;;;;;5042204;27;87533;-37
2022/08/19 07:16:06;;;;;;;;;;;23.40;59.30;;;;;;5043885;28;89529;-37
2022/08/19 07:18:32;;;;;;;;;;;23.40;59.40;;;;;;5041104;27;89588;-37
2022/08/19 07:21:05;;;;;;;;;;;23.40;59.40;;;;;;5041645;28;88316;-37
2022/08/19 07:23:31;;;;;;;;;;;23.40;59.40;;;;;;5041847;28;87197;-37
2022/08/19 07:25:56;;;;;;;;;;;23.40;59.50;;;;;;5042186;28;87249;-37
2022/08/19 07:28:22;;;;;;;;;;;23.40;59.50;;;;;;5041935;28;88011;-37
2022/08/19 07:30:49;;;;;;;;;;;23.40;59.50;;;;;;5041997;28;87366;-37
2022/08/19 07:33:15;;;;;;;;;;;23.40;59.50;;;;;;5041830;27;87340;-37
2022/08/19 07:35:41;;;;;;;;;;;23.40;59.40;;;;;;5041887;28;87435;-37
2022/08/19 07:38:07;;;;;;;;;;;23.40;59.50;;;;;;5044627;28;87147;-37
2022/08/19 07:40:32;;;;;;;;;;;23.40;60.10;;;;;;5043799;27;89327;-37
2022/08/19 07:42:58;;;;;;;;;;;23.40;59.50;;;;;;5044870;28;88051;-37
2022/08/19 07:45:23;;;;;;;;;;;23.40;59.50;;;;;;5045147;28;88352;-37
2022/08/19 07:47:49;;;;;;;;;;;23.40;59.50;;;;;;5044835;28;88409;-37
2022/08/19 07:50:15;;;;;;;;;;;23.40;59.50;;;;;;5045559;28;87024;-37
2022/08/19 07:52:43;;;;;;;;;;;23.40;59.50;;;;;;5045217;27;87398;-37
2022/08/19 07:55:09;;;;;;;;;;;23.40;59.50;;;;;;5044692;28;89335;-38
2022/08/19 07:57:35;;;;;;;;;;;23.50;59.60;;;;;;5045162;28;87015;-37
2022/08/19 08:00:01;;;;;;;;;;;23.40;59.50;;;;;;5048113;27;89027;-37
2022/08/19 08:02:26;;;;;;;;;;;23.40;59.50;;;;;;5045010;28;86975;-37
2022/08/19 08:10:20;;;;;;;;;;;23.50;59.50;;;;;;5045308;28;87019;-37
2022/08/19 08:12:45;;;;;;;;;;;23.50;59.50;;;;;;5045058;28;87709;-37
2022/08/19 08:15:16;;;;;;;;;;;23.50;59.50;;;;;;5044281;28;87978;-37
2022/08/19 08:17:42;;;;;;;;;;;23.50;59.40;;;;;;5044736;28;87023;-37
2022/08/19 08:20:08;;;;;;;;;;;23.50;59.40;;;;;;5047465;27;87534;-37
2022/08/19 08:25:20;;;;;;;;;;;23.50;59.40;;;;;;5045512;28;86635;-37
2022/08/19 08:27:46;;;;;;;;;;;23.50;59.40;;;;;;5044500;28;88576;-37
2022/08/19 08:30:14;;;;;;;;;;;23.60;59.50;;;;;;5044736;28;87093;-37
2022/08/19 08:32:39;;;;;;;;;;;23.50;59.50;;;;;;5043887;28;89021;-37
2022/08/19 08:35:06;;;;;;;;;;;23.60;59.50;;;;;;5044361;28;87412;-37
2022/08/19 08:37:31;;;;;;;;;;;23.60;59.50;;;;;;5044509;28;86935;-37
2022/08/19 08:39:57;;;;;;;;;;;23.60;59.50;;;;;;5044738;27;87373;-37
2022/08/19 08:42:26;;;;;;;;;;;23.60;59.40;;;;;;5047317;28;88015;-37
2022/08/19 08:44:57;;;;;;;;;;;23.60;59.40;;;;;;5044251;27;88073;-37
2022/08/19 08:47:25;;;;;;;;;;;23.60;59.40;;;;;;5044199;28;88210;-37
2022/08/19 08:49:53;;;;;;;;;;;23.60;59.30;;;;;;5045064;28;86385;-37
2022/08/19 08:52:21;;;;;;;;;;;23.60;59.30;;;;;;5043577;27;87087;-37
2022/08/19 08:54:48;;;;;;;;;;;23.70;59.40;;;;;;5044003;28;88094;-37
2022/08/19 08:57:17;;;;;;;;;;;23.70;58.90;;;;;;5043039;28;87931;-41
2022/08/19 08:59:45;;;;;;;;;;;23.90;63.80;;;;;;5044128;27;88468;-42
2022/08/19 09:02:11;;;;;;;;;;;24.30;63.60;;;;;;5043727;28;89331;-38
2022/08/19 09:04:37;;;;;;;;;;;24.60;61.90;;;;;;5047268;28;87084;-41
2022/08/19 09:07:21;;;;;;;;;;;24.70;59.30;;;;;;5043261;28;89389;-38
2022/08/19 09:09:49;;;;;;;;;;;24.80;56.90;;;;;;5044194;28;87119;-41
2022/08/19 09:12:34;;;;;;;;;;;25.00;55.20;;;;;;5043873;28;87048;-38
2022/08/19 09:15:07;;;;;;;;;;;25.10;55.50;;;;;;5044118;27;88548;-39
2022/08/19 09:17:38;;;;;;;;;;;25.10;54.50;;;;;;5043649;28;86948;-38
2022/08/19 09:20:24;;;;;;;;;;;25.10;57.30;;;;;;5043809;27;90002;-42
2022/08/19 09:22:50;;;;;;;;;;;25.20;59.40;;;;;;5042433;28;90530;-38
2022/08/19 09:25:17;;;;;;;;;;;25.30;59.20;;;;;;5043851;28;87057;-39
2022/08/19 09:27:43;;;;;;;;;;;25.50;59.30;;;;;;5046469;28;87329;-42
2022/08/19 09:30:35;;;;;;;;;;;25.50;56.10;;;;;;5043270;28;87339;-39
2022/08/19 09:33:00;;;;;;;;;;;25.60;57.50;;;;;;5041486;27;87557;-39
2022/08/19 09:35:28;;;;;;;;;;;25.70;53.50;;;;;;5043555;28;87183;-40
2022/08/19 09:37:54;;;;;;;;;;;25.90;57.10;;;;;;5043436;28;87158;-39
2022/08/19 09:40:20;;;;;;;;;;;25.80;53.40;;;;;;5043995;27;88728;-42
2022/08/19 09:42:48;;;;;;;;;;;25.80;54.80;;;;;;5043343;28;87265;-39
2022/08/19 09:45:15;;;;;;;;;;;25.90;52.30;;;;;;5043277;28;87025;-39
2022/08/19 09:47:41;;;;;;;;;;;26.00;52.50;;;;;;5043003;28;87853;-40
2022/08/19 09:50:07;;;;;;;;;;;26.00;50.50;;;;;;5046146;28;87220;-43
2022/08/19 09:52:34;;;;;;;;;;;26.00;51.70;;;;;;5043148;27;87490;-41
2022/08/19 09:55:00;;;;;;;;;;;26.10;52.70;;;;;;5042902;28;88003;-45
2022/08/19 09:57:25;;;;;;;;;;;26.30;51.30;;;;;;5043279;28;87158;-42
2022/08/19 09:59:51;;;;;;;;;;;26.30;50.30;;;;;;5043421;28;87450;-42
2022/08/19 10:02:17;;;;;;;;;;;26.20;50.50;;;;;;5042560;28;89365;-38
2022/08/19 10:07:28;;;;;;;;;;;26.30;48.70;;;;;;5040317;28;86961;-40
2022/08/19 10:09:54;;;;;;;;;;;26.30;47.50;;;;;;5042629;28;88250;-38
2022/08/19 10:12:19;;;;;;;;;;;26.20;48.70;;;;;;5045361;28;88100;-39
2022/08/19 10:14:46;;;;;;;;;;;26.30;47.90;;;;;;5042557;28;88095;-41
2022/08/19 10:17:11;;;;;;;;;;;26.40;48.90;;;;;;5042639;28;87124;-39
2022/08/19 10:19:37;;;;;;;;;;;26.50;52.10;;;;;;5043244;28;87426;-38
2022/08/19 10:22:04;;;;;;;;;;;26.60;50.10;;;;;;5042719;28;87945;-40
2022/08/19 10:24:30;;;;;;;;;;;26.60;48.40;;;;;;5042818;28;87534;-42
2022/08/19 10:26:56;;;;;;;;;;;26.70;47.50;;;;;;5042860;28;88921;-41
2022/08/19 10:29:22;;;;;;;;;;;26.70;47.40;;;;;;5043098;28;86863;-42
2022/08/19 10:31:48;;;;;;;;;;;26.70;47.40;;;;;;5045871;28;87063;-43
2022/08/19 10:34:13;;;;;;;;;;;26.70;47.20;;;;;;5042233;28;89700;-38
2022/08/19 10:36:39;;;;;;;;;;;26.60;47.80;;;;;;5042132;28;87976;-41
2022/08/19 10:39:06;;;;;;;;;;;26.40;49.00;;;;;;5042488;28;88410;-41
2022/08/19 10:41:33;;;;;;;;;;;26.40;49.40;;;;;;5042172;27;88202;-46
2022/08/19 10:44:00;;;;;;;;;;;26.40;48.50;;;;;;5042883;28;87509;-41
2022/08/19 10:46:27;;;;;;;;;;;26.30;49.10;;;;;;5042713;27;87466;-41
2022/08/19 10:48:53;;;;;;;;;;;26.30;48.60;;;;;;5042290;28;87733;-42
2022/08/19 10:54:03;;;;;;;;;;;26.50;49.50;;;;;;5045915;28;86414;-41
2022/08/19 10:59:14;;;;;;;;;;;26.50;48.50;;;;;;5039720;28;86853;-41
2022/08/19 11:01:40;;;;;;;;;;;26.60;48.50;;;;;;5041395;28;89103;-41
2022/08/19 11:04:09;;;;;;;;;;;26.60;46.80;;;;;;5042312;28;87001;-40
2022/08/19 11:06:36;;;;;;;;;;;26.50;46.80;;;;;;5042105;28;88786;-43
2022/08/19 11:09:02;;;;;;;;;;;26.60;46.60;;;;;;5041939;28;87859;-44
2022/08/19 11:11:28;;;;;;;;;;;26.50;45.20;;;;;;5040143;28;87249;-41
2022/08/19 11:13:53;;;;;;;;;;;26.50;44.80;;;;;;5041657;27;89092;-41
2022/08/19 11:16:21;;;;;;;;;;;26.50;43.50;;;;;;5047618;28;88843;-46
2022/08/19 11:18:48;;;;;;;;;;;26.50;44.60;;;;;;5046270;28;88915;-43
2022/08/19 11:21:24;;;;;;;;;;;26.50;44.90;;;;;;5045495;28;88341;-45
2022/08/19 11:23:51;;;;;;;;;;;26.50;44.50;;;;;;5046069;28;86889;-44
2022/08/19 11:26:17;;;;;;;;;;;26.60;43.40;;;;;;5045182;27;87836;-52
2022/08/19 11:28:42;;;;;;;;;;;26.70;44.00;;;;;;5043229;28;87231;-44
2022/08/19 11:31:28;;;;;;;;;;;26.80;44.10;;;;;;5043800;28;87058;-44
2022/08/19 11:33:55;;;;;;;;;;;26.80;44.40;;;;;;5043923;28;87397;-48
2022/08/19 11:36:21;;;;;;;;;;;26.90;44.90;;;;;;5043442;28;88163;-48
2022/08/19 11:38:48;;;;;;;;;;;26.90;44.50;;;;;;5046777;28;87056;-44
2022/08/19 11:41:14;;;;;;;;;;;26.90;45.20;;;;;;5042977;28;89540;-42
2022/08/19 11:43:39;;;;;;;;;;;26.90;44.90;;;;;;5045671;28;86734;-42
2022/08/19 11:46:09;;;;;;;;;;;26.90;44.20;;;;;;5043718;28;88464;-41
2022/08/19 11:48:35;;;;;;;;;;;26.90;44.30;;;;;;5045012;28;87944;-42
2022/08/19 11:51:05;;;;;;;;;;;26.90;44.70;;;;;;5044804;28;88006;-42
2022/08/19 11:53:31;;;;;;;;;;;27.00;44.70;;;;;;5045202;27;90100;-47
2022/08/19 11:55:56;;;;;;;;;;;27.10;45.70;;;;;;5045238;28;87947;-41
2022/08/19 11:58:22;;;;;;;;;;;27.10;45.00;;;;;;5045397;28;87089;-44
2022/08/19 12:00:48;;;;;;;;;;;27.20;45.10;;;;;;5047389;28;88757;-44
2022/08/19 12:03:13;;;;;;;;;;;27.20;45.60;;;;;;5045374;28;87074;-40
2022/08/19 12:05:39;;;;;;;;;;;27.20;44.40;;;;;;5045066;27;88728;-41
2022/08/19 12:08:05;;;;;;;;;;;27.20;43.60;;;;;;5045323;28;87468;-44
2022/08/19 12:10:31;;;;;;;;;;;27.30;44.20;;;;;;5045333;28;86993;-41
2022/08/19 12:12:57;;;;;;;;;;;27.30;44.10;;;;;;5045021;27;87386;-40
2022/08/19 12:15:22;;;;;;;;;;;27.30;43.80;;;;;;5043597;28;88889;-42
2022/08/19 12:17:48;;;;;;;;;;;27.30;44.70;;;;;;5044719;28;87105;-43
2022/08/19 12:20:15;;;;;;;;;;;27.30;44.20;;;;;;5045099;27;87386;-44
2022/08/19 12:22:41;;;;;;;;;;;27.30;44.50;;;;;;5047319;28;89597;-40
2022/08/19 12:25:07;;;;;;;;;;;27.40;44.10;;;;;;5045221;27;87922;-41
2022/08/19 12:27:32;;;;;;;;;;;27.40;44.00;;;;;;5043315;28;89929;-42
2022/08/19 12:30:00;;;;;;;;;;;27.40;44.00;;;;;;5044847;28;87090;-40
2022/08/19 12:32:26;;;;;;;;;;;27.40;44.20;;;;;;5044956;27;89031;-42
2022/08/19 12:34:51;;;;;;;;;;;27.40;44.80;;;;;;5044535;28;87989;-42
2022/08/19 12:37:17;;;;;;;;;;;27.50;44.30;;;;;;5044523;28;87050;-41
2022/08/19 12:39:43;;;;;;;;;;;27.50;43.90;;;;;;5043985;27;87897;-42
2022/08/19 12:42:12;;;;;;;;;;;27.50;43.90;;;;;;5047248;28;88000;-45
2022/08/19 12:44:39;;;;;;;;;;;27.50;44.10;;;;;;5044515;27;88153;-45
2022/08/19 12:47:05;;;;;;;;;;;27.60;45.00;;;;;;5043974;28;89448;-42
2022/08/19 12:49:33;;;;;;;;;;;27.70;42.90;;;;;;5044244;28;86990;-38
2022/08/19 12:52:01;;;;;;;;;;;27.90;43.20;;;;;;5044474;28;87399;-40
2022/08/19 12:54:27;;;;;;;;;;;28.00;43.80;;;;;;5044057;28;88251;-43
2022/08/19 12:56:53;;;;;;;;;;;28.00;43.90;;;;;;5044967;28;86262;-41
2022/08/19 12:59:19;;;;;;;;;;;28.00;43.90;;;;;;5043894;27;88467;-42
2022/08/19 13:01:44;;;;;;;;;;;28.00;43.60;;;;;;5044129;28;87988;-39
2022/08/19 13:04:10;;;;;;;;;;;28.10;43.20;;;;;;5046707;28;88035;-40
2022/08/19 13:06:36;;;;;;;;;;;28.10;43.50;;;;;;5043735;28;89371;-35
2022/08/19 13:09:02;;;;;;;;;;;28.00;43.70;;;;;;5044108;28;86965;-37
2022/08/19 13:11:32;;;;;;;;;;;27.90;43.80;;;;;;5044179;27;87150;-38
2022/08/19 13:13:58;;;;;;;;;;;27.90;44.40;;;;;;5043527;28;89761;-40
2022/08/19 13:16:23;;;;;;;;;;;27.90;43.00;;;;;;5043541;28;86931;-40
2022/08/19 13:18:52;;;;;;;;;;;28.00;43.30;;;;;;5044129;28;87548;-37
2022/08/19 13:21:19;;;;;;;;;;;28.00;44.30;;;;;;5044069;28;87250;-36
2022/08/19 13:23:45;;;;;;;;;;;28.00;43.70;;;;;;5043917;28;87066;-37
2022/08/19 13:26:11;;;;;;;;;;;28.00;43.40;;;;;;5046453;27;88062;-38
2022/08/19 13:34:05;;;;;;;;;;;;;;;;;;5042779;28;87133;-40
2022/08/19 13:36:31;;;;;;;;;;;;;;;;;;5043774;27;87690;-39
2022/08/19 13:38:57;;;;;;;;;;;;;;;;;;5043309;27;88145;-39
2022/08/19 13:41:23;;;;;;;;;;;;;;;;;;5043327;27;88585;-40
2022/08/19 13:43:49;;;;;;;;;;;;;;;;;;5043996;27;87153;-38
2022/08/19 13:46:15;;;;;;;;;;;;;;;;;;5044136;27;86338;-43
2022/08/19 13:48:41;;;;;;;;;;;;;;;;;;5046385;27;87941;-41
2022/08/19 13:51:09;;;;;;;;;;;;;;;;;;5043774;27;87313;-41
2022/08/19 13:53:37;;;;;;;;;;;;;;;;;;5042200;27;90345;-45
2022/08/19 13:56:03;;;;;;;;;;;;;;;;;;5043580;27;87092;-40
2022/08/19 13:58:29;;;;;;;;;;;;;;;;;;5043597;27;87016;-50
2022/08/19 14:00:55;;;;;;;;;;;;;;;;;;5043220;28;87984;-44
2022/08/19 14:03:21;;;;;;;;;;;;;;;;;;5043361;27;87055;-41
2022/08/19 14:05:46;;;;;;;;;;;;;;;;;;5043753;27;86899;-46
2022/08/19 14:08:13;;;;;;;;;;;;;;;;;;5043114;27;88301;-52
2022/08/19 14:10:40;;;;;;;;;;;;;;;;;;5046705;27;86474;-44
2022/08/19 14:13:06;;;;;;;;;;;;;;;;;;5042870;28;88411;-48
2022/08/19 14:15:32;;;;;;;;;;;;;;;;;;5042966;27;87043;-44
2022/08/19 14:17:58;;;;;;;;;;;;;;;;;;5042775;27;87888;-44
2022/08/19 14:20:24;;;;;;;;;;;;;;;;;;5042894;27;87032;-45
2022/08/19 14:22:50;;;;;;;;;;;;;;;;;;5043361;27;87154;-41
2022/08/19 14:25:15;;;;;;;;;;;;;;;;;;5043243;27;86955;-45
2022/08/19 14:27:41;;;;;;;;;;;;;;;;;;5043075;27;87934;-44
2022/08/19 14:30:07;;;;;;;;;;;;;;;;;;5043003;27;87140;-41
2022/08/19 14:32:34;;;;;;;;;;;;;;;;;;5045724;27;86901;-48
2022/08/19 14:34:59;;;;;;;;;;;;;;;;;;5043416;27;86454;-43
2022/08/19 14:37:25;;;;;;;;;;;;;;;;;;5043015;27;86939;-43
2022/08/19 14:39:51;;;;;;;;;;;;;;;;;;5042787;27;87213;-42
2022/08/19 14:42:17;;;;;;;;;;;;;;;;;;5042012;28;88056;-41
2022/08/19 14:44:43;;;;;;;;;;;;;;;;;;5042736;27;87803;-42
2022/08/19 14:47:09;;;;;;;;;;;;;;;;;;5042511;27;87984;-42
2022/08/19 14:49:35;;;;;;;;;;;;;;;;;;5041849;27;87154;-43
2022/08/19 14:52:01;;;;;;;;;;;;;;;;;;5045465;27;87015;-43
2022/08/19 14:54:27;;;;;;;;;;;;;;;;;;5042570;27;87175;-45
2022/08/19 14:56:52;;;;;;;;;;;;;;;;;;5042879;27;87068;-46
2022/08/19 14:59:18;;;;;;;;;;;;;;;;;;5043041;27;87047;-44